Aviation Digital Data Service (ADDS)

Output produced by TAFs form (0046 UTC 26 July 2017)
found at http://aviationweather.gov/adds/tafs/
 
KDMN 252336Z 2600/2624 25006KT P6SM SCT070 BKN100 BKN200 
     FM261100 29005KT P6SM SCT100 BKN200 
     FM261800 24007KT P6SM FEW070 SCT120